sensor_id;sensor_type;location;lat;lon;timestamp;pressure;altitude;pressure_sealevel;temperature;humidity
42887;BME280;29032;56.028;92.904;2023-03-18T00:02:16;99944.03;;;-2.56;49.66
42887;BME280;29032;56.028;92.904;2023-03-18T00:07:18;99937.50;;;-2.50;49.80
42887;BME280;29032;56.028;92.904;2023-03-18T00:12:20;99936.56;;;-2.56;49.98
42887;BME280;29032;56.028;92.904;2023-03-18T00:17:24;99944.19;;;-2.60;50.07
42887;BME280;29032;56.028;92.904;2023-03-18T00:22:26;99955.78;;;-2.47;49.90
42887;BME280;29032;56.028;92.904;2023-03-18T00:27:28;99945.47;;;-2.33;49.45
42887;BME280;29032;56.028;92.904;2023-03-18T00:32:32;99941.50;;;-2.32;49.63
42887;BME280;29032;56.028;92.904;2023-03-18T00:37:35;99934.75;;;-2.50;49.93
42887;BME280;29032;56.028;92.904;2023-03-18T00:42:38;99931.41;;;-2.54;49.87
42887;BME280;29032;56.028;92.904;2023-03-18T00:47:42;99945.41;;;-2.52;50.27
42887;BME280;29032;56.028;92.904;2023-03-18T00:52:44;99937.22;;;-2.43;49.62
42887;BME280;29032;56.028;92.904;2023-03-18T00:57:46;99942.09;;;-2.28;49.49
42887;BME280;29032;56.028;92.904;2023-03-18T01:02:50;99935.28;;;-2.15;49.00
42887;BME280;29032;56.028;92.904;2023-03-18T01:07:52;99944.59;;;-2.12;49.22
42887;BME280;29032;56.028;92.904;2023-03-18T01:12:54;99943.97;;;-1.89;49.01
42887;BME280;29032;56.028;92.904;2023-03-18T01:17:58;99944.56;;;-1.66;48.98
42887;BME280;29032;56.028;92.904;2023-03-18T01:23:00;99932.41;;;-1.74;47.88
42887;BME280;29032;56.028;92.904;2023-03-18T01:28:03;99944.28;;;-1.68;47.50
42887;BME280;29032;56.028;92.904;2023-03-18T01:33:07;99947.19;;;-1.63;47.14
42887;BME280;29032;56.028;92.904;2023-03-18T01:38:10;99939.72;;;-1.62;48.01
42887;BME280;29032;56.028;92.904;2023-03-18T01:43:14;99941.06;;;-1.57;48.57
42887;BME280;29032;56.028;92.904;2023-03-18T01:48:22;99938.00;;;-1.41;47.81
42887;BME280;29032;56.028;92.904;2023-03-18T01:53:28;99927.78;;;-1.41;47.04
42887;BME280;29032;56.028;92.904;2023-03-18T01:58:33;99924.44;;;-1.45;47.69
42887;BME280;29032;56.028;92.904;2023-03-18T02:03:38;99923.53;;;-1.42;47.61
42887;BME280;29032;56.028;92.904;2023-03-18T02:08:42;99913.16;;;-1.47;47.65
42887;BME280;29032;56.028;92.904;2023-03-18T02:13:44;99919.84;;;-1.39;47.83
42887;BME280;29032;56.028;92.904;2023-03-18T02:18:51;99919.19;;;-1.24;47.83
42887;BME280;29032;56.028;92.904;2023-03-18T02:23:58;99925.69;;;-1.04;47.95
42887;BME280;29032;56.028;92.904;2023-03-18T02:29:04;99911.09;;;-0.86;47.04
42887;BME280;29032;56.028;92.904;2023-03-18T02:34:17;99912.72;;;-0.70;47.21
42887;BME280;29032;56.028;92.904;2023-03-18T02:39:21;99895.56;;;-0.56;46.96
42887;BME280;29032;56.028;92.904;2023-03-18T02:44:26;99906.00;;;-0.45;47.45
42887;BME280;29032;56.028;92.904;2023-03-18T02:49:48;99896.00;;;-0.33;47.64
42887;BME280;29032;56.028;92.904;2023-03-18T02:54:51;99902.78;;;-0.19;46.95
42887;BME280;29032;56.028;92.904;2023-03-18T02:59:55;99889.16;;;-0.14;47.71
42887;BME280;29032;56.028;92.904;2023-03-18T03:04:57;99876.81;;;-0.18;47.59
42887;BME280;29032;56.028;92.904;2023-03-18T03:09:59;99876.63;;;-0.15;47.67
42887;BME280;29032;56.028;92.904;2023-03-18T03:15:05;99874.78;;;0.06;47.73
42887;BME280;29032;56.028;92.904;2023-03-18T03:20:10;99858.97;;;0.16;47.01
42887;BME280;29032;56.028;92.904;2023-03-18T03:25:12;99852.44;;;0.13;47.30
42887;BME280;29032;56.028;92.904;2023-03-18T03:30:17;99836.22;;;0.15;47.33
42887;BME280;29032;56.028;92.904;2023-03-18T03:35:19;99831.94;;;0.14;47.46
42887;BME280;29032;56.028;92.904;2023-03-18T03:40:22;99830.81;;;0.21;47.19
42887;BME280;29032;56.028;92.904;2023-03-18T03:45:27;99828.22;;;0.47;46.54
42887;BME280;29032;56.028;92.904;2023-03-18T03:50:29;99817.28;;;0.67;46.13
42887;BME280;29032;56.028;92.904;2023-03-18T03:55:32;99802.22;;;0.83;45.84
42887;BME280;29032;56.028;92.904;2023-03-18T04:00:35;99785.97;;;1.00;46.26
42887;BME280;29032;56.028;92.904;2023-03-18T04:05:38;99789.59;;;1.11;45.64
42887;BME280;29032;56.028;92.904;2023-03-18T04:10:40;99776.38;;;1.15;45.46
42887;BME280;29032;56.028;92.904;2023-03-18T04:15:46;99773.13;;;1.37;45.30
42887;BME280;29032;56.028;92.904;2023-03-18T04:20:52;99774.72;;;1.44;44.85
42887;BME280;29032;56.028;92.904;2023-03-18T04:26:17;99762.66;;;1.62;43.94
42887;BME280;29032;56.028;92.904;2023-03-18T04:31:21;99762.88;;;1.84;43.09
42887;BME280;29032;56.028;92.904;2023-03-18T04:36:24;99749.97;;;2.02;42.01
42887;BME280;29032;56.028;92.904;2023-03-18T04:41:26;99748.06;;;2.13;41.26
42887;BME280;29032;56.028;92.904;2023-03-18T04:46:32;99746.69;;;2.29;41.28
42887;BME280;29032;56.028;92.904;2023-03-18T04:51:35;99733.25;;;2.42;40.24
42887;BME280;29032;56.028;92.904;2023-03-18T04:56:37;99731.81;;;2.52;40.41
42887;BME280;29032;56.028;92.904;2023-03-18T05:01:41;99734.94;;;2.71;39.87
42887;BME280;29032;56.028;92.904;2023-03-18T05:06:44;99730.50;;;2.85;39.83
42887;BME280;29032;56.028;92.904;2023-03-18T05:11:48;99724.78;;;3.00;39.87
42887;BME280;29032;56.028;92.904;2023-03-18T05:17:13;99716.56;;;3.11;40.65
42887;BME280;29032;56.028;92.904;2023-03-18T05:22:17;99702.75;;;3.22;39.30
42887;BME280;29032;56.028;92.904;2023-03-18T05:27:21;99705.53;;;3.28;38.22
42887;BME280;29032;56.028;92.904;2023-03-18T05:32:34;99696.28;;;3.48;37.78
42887;BME280;29032;56.028;92.904;2023-03-18T05:37:40;99687.25;;;3.64;36.64
42887;BME280;29032;56.028;92.904;2023-03-18T05:42:43;99677.97;;;3.89;36.26
42887;BME280;29032;56.028;92.904;2023-03-18T05:47:46;99672.66;;;4.14;35.82
42887;BME280;29032;56.028;92.904;2023-03-18T05:52:49;99657.06;;;4.33;35.34
42887;BME280;29032;56.028;92.904;2023-03-18T05:57:56;99658.28;;;4.55;34.95
42887;BME280;29032;56.028;92.904;2023-03-18T06:03:01;99650.44;;;4.64;34.63
42887;BME280;29032;56.028;92.904;2023-03-18T06:08:03;99646.88;;;4.75;33.83
42887;BME280;29032;56.028;92.904;2023-03-18T06:13:08;99638.47;;;4.92;33.50
42887;BME280;29032;56.028;92.904;2023-03-18T06:18:13;99607.22;;;4.91;34.12
42887;BME280;29032;56.028;92.904;2023-03-18T06:23:15;99618.97;;;5.14;33.27
42887;BME280;29032;56.028;92.904;2023-03-18T06:28:17;99606.06;;;5.22;33.41
42887;BME280;29032;56.028;92.904;2023-03-18T06:33:21;99603.91;;;5.40;33.06
42887;BME280;29032;56.028;92.904;2023-03-18T06:38:24;99604.28;;;5.55;33.02
42887;BME280;29032;56.028;92.904;2023-03-18T06:43:27;99587.53;;;5.72;32.45
42887;BME280;29032;56.028;92.904;2023-03-18T06:48:31;99580.47;;;6.01;32.70
42887;BME280;29032;56.028;92.904;2023-03-18T06:53:33;99565.41;;;6.15;31.97
42887;BME280;29032;56.028;92.904;2023-03-18T06:58:36;99555.84;;;6.35;32.25
42887;BME280;29032;56.028;92.904;2023-03-18T07:03:43;99556.03;;;6.61;32.09
42887;BME280;29032;56.028;92.904;2023-03-18T07:08:47;99525.06;;;6.71;31.56
42887;BME280;29032;56.028;92.904;2023-03-18T07:13:50;99522.66;;;6.80;32.24
42887;BME280;29032;56.028;92.904;2023-03-18T07:19:01;99518.44;;;6.92;31.41
42887;BME280;29032;56.028;92.904;2023-03-18T07:24:06;99505.00;;;7.10;31.55
42887;BME280;29032;56.028;92.904;2023-03-18T07:29:08;99488.63;;;7.25;31.27
42887;BME280;29032;56.028;92.904;2023-03-18T07:34:13;99490.16;;;7.39;30.58
42887;BME280;29032;56.028;92.904;2023-03-18T07:39:16;99481.47;;;7.43;30.92
42887;BME280;29032;56.028;92.904;2023-03-18T07:44:18;99479.47;;;7.57;31.23
42887;BME280;29032;56.028;92.904;2023-03-18T07:49:21;99476.28;;;7.79;31.05
42887;BME280;29032;56.028;92.904;2023-03-18T07:54:24;99471.34;;;7.85;29.53
42887;BME280;29032;56.028;92.904;2023-03-18T07:59:26;99469.66;;;7.95;29.49
42887;BME280;29032;56.028;92.904;2023-03-18T08:04:30;99476.38;;;8.13;29.52
42887;BME280;29032;56.028;92.904;2023-03-18T08:09:32;99467.34;;;8.20;28.90
42887;BME280;29032;56.028;92.904;2023-03-18T08:14:34;99470.34;;;8.22;27.80
42887;BME280;29032;56.028;92.904;2023-03-18T08:19:38;99452.88;;;8.22;28.61
42887;BME280;29032;56.028;92.904;2023-03-18T08:24:40;99463.63;;;8.18;27.71
42887;BME280;29032;56.028;92.904;2023-03-18T08:29:42;99447.56;;;8.11;27.17
42887;BME280;29032;56.028;92.904;2023-03-18T08:34:46;99443.47;;;8.12;27.40
42887;BME280;29032;56.028;92.904;2023-03-18T08:39:48;99444.53;;;8.09;26.11
42887;BME280;29032;56.028;92.904;2023-03-18T08:44:50;99431.69;;;8.06;26.38
42887;BME280;29032;56.028;92.904;2023-03-18T08:49:53;99421.31;;;8.06;26.20
42887;BME280;29032;56.028;92.904;2023-03-18T08:54:56;99416.28;;;8.05;26.01
42887;BME280;29032;56.028;92.904;2023-03-18T08:59:58;99415.84;;;8.00;24.77
42887;BME280;29032;56.028;92.904;2023-03-18T09:05:01;99419.91;;;7.99;24.97
42887;BME280;29032;56.028;92.904;2023-03-18T09:10:04;99408.09;;;8.20;25.01
42887;BME280;29032;56.028;92.904;2023-03-18T09:15:08;99411.66;;;8.54;24.29
42887;BME280;29032;56.028;92.904;2023-03-18T09:20:14;99392.31;;;9.76;23.92
42887;BME280;29032;56.028;92.904;2023-03-18T09:25:17;99395.78;;;11.48;21.58
42887;BME280;29032;56.028;92.904;2023-03-18T09:30:19;99385.97;;;12.68;19.66
42887;BME280;29032;56.028;92.904;2023-03-18T09:35:23;99387.31;;;13.86;19.64
42887;BME280;29032;56.028;92.904;2023-03-18T09:40:28;99377.22;;;12.56;20.16
42887;BME280;29032;56.028;92.904;2023-03-18T09:45:34;99380.53;;;10.81;22.35
42887;BME280;29032;56.028;92.904;2023-03-18T09:50:46;99366.81;;;9.72;23.13
42887;BME280;29032;56.028;92.904;2023-03-18T09:55:56;99353.47;;;9.00;23.76
42887;BME280;29032;56.028;92.904;2023-03-18T10:01:02;99342.41;;;8.45;23.49
42887;BME280;29032;56.028;92.904;2023-03-18T10:06:14;99343.81;;;8.18;24.59
42887;BME280;29032;56.028;92.904;2023-03-18T10:11:22;99340.88;;;7.89;24.21
42887;BME280;29032;56.028;92.904;2023-03-18T10:16:29;99347.13;;;7.69;23.83
42887;BME280;29032;56.028;92.904;2023-03-18T10:21:39;99332.78;;;7.52;23.16
42887;BME280;29032;56.028;92.904;2023-03-18T10:26:47;99333.88;;;7.35;23.58
42887;BME280;29032;56.028;92.904;2023-03-18T10:31:58;99333.69;;;7.33;23.89
42887;BME280;29032;56.028;92.904;2023-03-18T10:37:09;99333.44;;;7.18;23.28
42887;BME280;29032;56.028;92.904;2023-03-18T10:42:20;99329.56;;;7.08;23.74
42887;BME280;29032;56.028;92.904;2023-03-18T10:47:25;99325.19;;;6.99;23.27
42887;BME280;29032;56.028;92.904;2023-03-18T10:52:34;99329.75;;;6.97;23.14
42887;BME280;29032;56.028;92.904;2023-03-18T10:57:39;99328.03;;;6.80;22.91
42887;BME280;29032;56.028;92.904;2023-03-18T11:02:41;99334.00;;;6.71;22.57
42887;BME280;29032;56.028;92.904;2023-03-18T11:08:03;99331.44;;;6.73;23.76
42887;BME280;29032;56.028;92.904;2023-03-18T11:13:06;99329.94;;;6.40;23.01
42887;BME280;29032;56.028;92.904;2023-03-18T11:18:14;99321.72;;;6.34;23.01
42887;BME280;29032;56.028;92.904;2023-03-18T11:23:30;99329.19;;;6.26;23.39
42887;BME280;29032;56.028;92.904;2023-03-18T11:28:36;99325.66;;;6.07;23.60
42887;BME280;29032;56.028;92.904;2023-03-18T11:34:00;99327.16;;;6.08;24.34
42887;BME280;29032;56.028;92.904;2023-03-18T11:39:17;99318.75;;;5.95;24.07
42887;BME280;29032;56.028;92.904;2023-03-18T11:44:26;99316.69;;;5.76;24.33
42887;BME280;29032;56.028;92.904;2023-03-18T11:49:29;99314.91;;;5.60;24.47
42887;BME280;29032;56.028;92.904;2023-03-18T11:55:10;99317.09;;;5.67;25.07
42887;BME280;29032;56.028;92.904;2023-03-18T12:00:28;99320.25;;;5.58;25.29
42887;BME280;29032;56.028;92.904;2023-03-18T12:05:38;99316.31;;;5.48;25.09
42887;BME280;29032;56.028;92.904;2023-03-18T12:10:50;99315.41;;;5.40;25.19
42887;BME280;29032;56.028;92.904;2023-03-18T12:16:05;99327.56;;;5.37;25.96
42887;BME280;29032;56.028;92.904;2023-03-18T12:21:31;99330.31;;;5.37;26.21
42887;BME280;29032;56.028;92.904;2023-03-18T12:26:45;99336.47;;;5.30;26.32
42887;BME280;29032;56.028;92.904;2023-03-18T12:32:02;99327.50;;;5.18;26.44
42887;BME280;29032;56.028;92.904;2023-03-18T12:37:19;99327.91;;;5.03;26.88
42887;BME280;29032;56.028;92.904;2023-03-18T12:42:35;99325.31;;;4.86;26.96
42887;BME280;29032;56.028;92.904;2023-03-18T12:47:44;99323.63;;;4.78;27.58
42887;BME280;29032;56.028;92.904;2023-03-18T12:52:53;99321.19;;;4.68;28.08
42887;BME280;29032;56.028;92.904;2023-03-18T12:58:03;99305.84;;;4.67;28.19
42887;BME280;29032;56.028;92.904;2023-03-18T13:03:20;99309.66;;;4.64;28.60
42887;BME280;29032;56.028;92.904;2023-03-18T13:14:03;99296.50;;;4.40;28.80
42887;BME280;29032;56.028;92.904;2023-03-18T13:19:08;99299.59;;;4.31;29.02
42887;BME280;29032;56.028;92.904;2023-03-18T13:24:48;99292.56;;;4.30;29.88
42887;BME280;29032;56.028;92.904;2023-03-18T13:30:03;99285.56;;;4.18;29.99
42887;BME280;29032;56.028;92.904;2023-03-18T13:35:32;99290.81;;;4.22;29.64
42887;BME280;29032;56.028;92.904;2023-03-18T13:41:05;99284.81;;;4.17;29.85
42887;BME280;29032;56.028;92.904;2023-03-18T13:46:18;99293.66;;;4.10;30.28
42887;BME280;29032;56.028;92.904;2023-03-18T13:51:47;99285.81;;;4.14;30.34
42887;BME280;29032;56.028;92.904;2023-03-18T13:56:51;99280.16;;;4.01;30.88
42887;BME280;29032;56.028;92.904;2023-03-18T14:01:57;99275.88;;;4.00;30.49
42887;BME280;29032;56.028;92.904;2023-03-18T14:07:13;99278.84;;;4.08;30.50
42887;BME280;29032;56.028;92.904;2023-03-18T14:12:21;99274.84;;;4.03;31.39
42887;BME280;29032;56.028;92.904;2023-03-18T14:17:44;99262.28;;;4.02;31.65
42887;BME280;29032;56.028;92.904;2023-03-18T14:22:49;99255.81;;;3.94;31.50
42887;BME280;29032;56.028;92.904;2023-03-18T14:27:53;99252.78;;;3.92;31.54
42887;BME280;29032;56.028;92.904;2023-03-18T14:32:58;99260.03;;;4.01;31.87
42887;BME280;29032;56.028;92.904;2023-03-18T14:38:04;99253.66;;;4.11;31.84
42887;BME280;29032;56.028;92.904;2023-03-18T14:43:13;99252.38;;;4.12;32.39
42887;BME280;29032;56.028;92.904;2023-03-18T14:48:22;99249.09;;;4.14;32.23
42887;BME280;29032;56.028;92.904;2023-03-18T14:53:28;99217.81;;;3.95;32.20
42887;BME280;29032;56.028;92.904;2023-03-18T14:58:33;99230.44;;;3.84;32.40
42887;BME280;29032;56.028;92.904;2023-03-18T15:03:37;99231.47;;;3.81;32.58
42887;BME280;29032;56.028;92.904;2023-03-18T15:08:48;99224.16;;;3.84;32.13
42887;BME280;29032;56.028;92.904;2023-03-18T15:13:53;99214.38;;;3.77;32.56
42887;BME280;29032;56.028;92.904;2023-03-18T15:18:57;99215.13;;;3.78;32.33
42887;BME280;29032;56.028;92.904;2023-03-18T15:24:01;99210.09;;;3.82;32.99
42887;BME280;29032;56.028;92.904;2023-03-18T15:29:22;99203.66;;;3.98;32.85
42887;BME280;29032;56.028;92.904;2023-03-18T15:34:29;99195.47;;;3.87;33.65
42887;BME280;29032;56.028;92.904;2023-03-18T15:39:33;99195.78;;;3.78;33.89
42887;BME280;29032;56.028;92.904;2023-03-18T15:44:37;99183.25;;;3.71;34.08
42887;BME280;29032;56.028;92.904;2023-03-18T15:49:48;99177.44;;;3.75;34.15
42887;BME280;29032;56.028;92.904;2023-03-18T15:54:52;99176.59;;;3.50;34.27
42887;BME280;29032;56.028;92.904;2023-03-18T15:59:54;99176.19;;;3.34;34.80
42887;BME280;29032;56.028;92.904;2023-03-18T16:05:06;99175.22;;;3.32;34.67
42887;BME280;29032;56.028;92.904;2023-03-18T16:10:10;99170.28;;;3.14;36.63
42887;BME280;29032;56.028;92.904;2023-03-18T16:15:15;99156.03;;;2.98;35.77
42887;BME280;29032;56.028;92.904;2023-03-18T16:20:24;99159.88;;;2.84;35.38
42887;BME280;29032;56.028;92.904;2023-03-18T16:25:27;99140.88;;;2.58;35.94
42887;BME280;29032;56.028;92.904;2023-03-18T16:30:30;99134.38;;;2.50;36.47
42887;BME280;29032;56.028;92.904;2023-03-18T16:35:34;99135.88;;;2.45;37.11
42887;BME280;29032;56.028;92.904;2023-03-18T16:40:36;99128.13;;;2.27;37.14
42887;BME280;29032;56.028;92.904;2023-03-18T16:45:38;99128.94;;;2.11;37.74
42887;BME280;29032;56.028;92.904;2023-03-18T16:50:43;99113.59;;;2.10;37.60
42887;BME280;29032;56.028;92.904;2023-03-18T16:55:46;99118.66;;;2.00;38.19
42887;BME280;29032;56.028;92.904;2023-03-18T17:00:49;99106.38;;;1.95;38.03
42887;BME280;29032;56.028;92.904;2023-03-18T17:05:52;99101.34;;;2.05;37.47
42887;BME280;29032;56.028;92.904;2023-03-18T17:10:57;99092.56;;;2.07;37.40
42887;BME280;29032;56.028;92.904;2023-03-18T17:16:00;99086.50;;;2.19;37.09
42887;BME280;29032;56.028;92.904;2023-03-18T17:21:04;99075.69;;;2.38;37.97
42887;BME280;29032;56.028;92.904;2023-03-18T17:26:10;99077.88;;;2.57;36.97
42887;BME280;29032;56.028;92.904;2023-03-18T17:31:13;99075.88;;;2.57;37.33
42887;BME280;29032;56.028;92.904;2023-03-18T17:36:17;99060.09;;;2.46;39.23
42887;BME280;29032;56.028;92.904;2023-03-18T17:41:19;99057.38;;;2.30;37.35
42887;BME280;29032;56.028;92.904;2023-03-18T17:46:22;99060.88;;;2.24;39.09
42887;BME280;29032;56.028;92.904;2023-03-18T17:51:26;99051.63;;;2.22;38.88
42887;BME280;29032;56.028;92.904;2023-03-18T17:56:28;99039.13;;;2.10;39.56
42887;BME280;29032;56.028;92.904;2023-03-18T18:01:30;99030.66;;;1.96;40.27
42887;BME280;29032;56.028;92.904;2023-03-18T18:06:33;99028.66;;;1.75;39.72
42887;BME280;29032;56.028;92.904;2023-03-18T18:11:37;99025.19;;;1.63;40.47
42887;BME280;29032;56.028;92.904;2023-03-18T18:16:40;99026.69;;;1.64;40.19
42887;BME280;29032;56.028;92.904;2023-03-18T18:21:44;99022.44;;;1.68;39.68
42887;BME280;29032;56.028;92.904;2023-03-18T18:26:47;99008.94;;;1.48;40.47
42887;BME280;29032;56.028;92.904;2023-03-18T18:31:50;99007.94;;;1.29;41.10
42887;BME280;29032;56.028;92.904;2023-03-18T18:36:53;98996.66;;;1.10;41.79
42887;BME280;29032;56.028;92.904;2023-03-18T18:41:55;98990.13;;;0.96;42.17
42887;BME280;29032;56.028;92.904;2023-03-18T18:46:57;98991.88;;;0.88;42.18
42887;BME280;29032;56.028;92.904;2023-03-18T18:52:01;98990.63;;;0.95;42.39
42887;BME280;29032;56.028;92.904;2023-03-18T18:57:03;98989.38;;;0.79;42.33
42887;BME280;29032;56.028;92.904;2023-03-18T19:02:20;98984.34;;;0.83;41.33
42887;BME280;29032;56.028;92.904;2023-03-18T19:07:30;98957.31;;;0.65;42.45
42887;BME280;29032;56.028;92.904;2023-03-18T19:12:33;98948.03;;;0.62;42.68
42887;BME280;29032;56.028;92.904;2023-03-18T19:17:35;98943.56;;;0.65;42.96
42887;BME280;29032;56.028;92.904;2023-03-18T19:22:39;98933.31;;;0.71;42.67
42887;BME280;29032;56.028;92.904;2023-03-18T19:27:41;98931.78;;;0.42;43.26
42887;BME280;29032;56.028;92.904;2023-03-18T19:32:43;98930.44;;;0.09;43.83
42887;BME280;29032;56.028;92.904;2023-03-18T19:37:47;98938.41;;;0.13;43.79
42887;BME280;29032;56.028;92.904;2023-03-18T19:42:49;98918.66;;;0.09;43.91
42887;BME280;29032;56.028;92.904;2023-03-18T19:47:52;98911.91;;;0.04;44.39
42887;BME280;29032;56.028;92.904;2023-03-18T19:52:55;98915.63;;;-0.05;44.41
42887;BME280;29032;56.028;92.904;2023-03-18T19:57:58;98903.06;;;-0.17;44.82
42887;BME280;29032;56.028;92.904;2023-03-18T20:03:00;98882.75;;;-0.31;45.10
42887;BME280;29032;56.028;92.904;2023-03-18T20:08:04;98886.28;;;-0.25;44.89
42887;BME280;29032;56.028;92.904;2023-03-18T20:13:08;98874.28;;;-0.27;45.12
42887;BME280;29032;56.028;92.904;2023-03-18T20:18:16;98863.34;;;-0.10;44.50
42887;BME280;29032;56.028;92.904;2023-03-18T20:23:22;98854.88;;;-0.01;44.34
42887;BME280;29032;56.028;92.904;2023-03-18T20:28:25;98847.16;;;0.03;44.13
42887;BME280;29032;56.028;92.904;2023-03-18T20:33:27;98841.41;;;0.12;43.98
42887;BME280;29032;56.028;92.904;2023-03-18T20:38:33;98833.91;;;0.18;43.47
42887;BME280;29032;56.028;92.904;2023-03-18T20:43:36;98830.41;;;0.12;43.80
42887;BME280;29032;56.028;92.904;2023-03-18T20:48:38;98816.91;;;0.03;43.97
42887;BME280;29032;56.028;92.904;2023-03-18T20:53:42;98823.41;;;0.11;44.13
42887;BME280;29032;56.028;92.904;2023-03-18T20:58:44;98817.16;;;0.11;44.61
42887;BME280;29032;56.028;92.904;2023-03-18T21:03:46;98807.41;;;-0.07;44.47
42887;BME280;29032;56.028;92.904;2023-03-18T21:08:49;98804.56;;;-0.24;44.86
42887;BME280;29032;56.028;92.904;2023-03-18T21:13:52;98794.25;;;-0.46;45.29
42887;BME280;29032;56.028;92.904;2023-03-18T21:18:54;98795.75;;;-0.56;45.42
42887;BME280;29032;56.028;92.904;2023-03-18T21:23:58;98790.44;;;-0.65;45.67
42887;BME280;29032;56.028;92.904;2023-03-18T21:29:00;98784.94;;;-0.77;45.64
42887;BME280;29032;56.028;92.904;2023-03-18T21:34:02;98781.66;;;-0.81;45.66
42887;BME280;29032;56.028;92.904;2023-03-18T21:39:05;98777.66;;;-0.80;45.95
42887;BME280;29032;56.028;92.904;2023-03-18T21:44:09;98769.16;;;-0.82;45.56
42887;BME280;29032;56.028;92.904;2023-03-18T21:49:11;98771.13;;;-0.88;45.90
42887;BME280;29032;56.028;92.904;2023-03-18T21:54:17;98764.97;;;-0.71;45.53
42887;BME280;29032;56.028;92.904;2023-03-18T21:59:19;98756.78;;;-0.55;45.46
42887;BME280;29032;56.028;92.904;2023-03-18T22:04:21;98745.59;;;-0.34;44.38
42887;BME280;29032;56.028;92.904;2023-03-18T22:09:25;98742.38;;;-0.22;44.18
42887;BME280;29032;56.028;92.904;2023-03-18T22:14:27;98737.34;;;-0.17;44.16
42887;BME280;29032;56.028;92.904;2023-03-18T22:19:29;98730.16;;;-0.09;44.55
42887;BME280;29032;56.028;92.904;2023-03-18T22:24:33;98724.91;;;0.04;43.92
42887;BME280;29032;56.028;92.904;2023-03-18T22:29:35;98719.16;;;-0.04;44.20
42887;BME280;29032;56.028;92.904;2023-03-18T22:34:37;98714.16;;;-0.05;43.98
42887;BME280;29032;56.028;92.904;2023-03-18T22:39:40;98708.91;;;-0.03;43.76
42887;BME280;29032;56.028;92.904;2023-03-18T22:44:42;98702.88;;;-0.18;43.92
42887;BME280;29032;56.028;92.904;2023-03-18T22:49:45;98697.88;;;-0.26;43.69
42887;BME280;29032;56.028;92.904;2023-03-18T22:54:51;98697.38;;;-0.24;43.56
42887;BME280;29032;56.028;92.904;2023-03-18T22:59:55;98680.63;;;-0.26;43.76
42887;BME280;29032;56.028;92.904;2023-03-18T23:04:58;98676.63;;;-0.31;43.71
42887;BME280;29032;56.028;92.904;2023-03-18T23:10:02;98660.91;;;-0.36;43.65
42887;BME280;29032;56.028;92.904;2023-03-18T23:15:05;98672.38;;;-0.32;43.68
42887;BME280;29032;56.028;92.904;2023-03-18T23:20:09;98670.91;;;-0.22;43.64
42887;BME280;29032;56.028;92.904;2023-03-18T23:25:15;98662.63;;;-0.16;43.06
42887;BME280;29032;56.028;92.904;2023-03-18T23:30:18;98660.38;;;-0.17;43.11
42887;BME280;29032;56.028;92.904;2023-03-18T23:35:20;98656.16;;;-0.24;43.35
42887;BME280;29032;56.028;92.904;2023-03-18T23:40:24;98645.16;;;-0.24;43.55
42887;BME280;29032;56.028;92.904;2023-03-18T23:45:26;98640.91;;;-0.31;43.23
42887;BME280;29032;56.028;92.904;2023-03-18T23:50:28;98636.91;;;-0.30;43.26
42887;BME280;29032;56.028;92.904;2023-03-18T23:55:32;98636.16;;;-0.19;43.11
